Aviation Digital Data Service (ADDS)

Output produced by METARs form (1822 UTC 22 November 2017)
found at http://www.aviationweather.gov/adds/metars/
 
MYGF 221600Z 2218/2318 36005KT 9999 FEW025 
     BECMG 2300/2302 08010KT
       
MYNN 221600Z 2218/2318 34008KT 9999 FEW020